CheckWX is a tool to help pilots better visualize weather data.  It is not intended as a substitute for an official pre-flight weather briefing.

02:09:13 UTC

KCVS TAF
Cannon AFB Airport
Clovis, New Mexico, USA
TAF KCVS 121800Z 1218/1324 32012KT 9999 FEW200 QNH3005INS BECMG 1223/1224 VRB06KT 9999 SKC QNH3004INS BECMG 1304/1305 27008KT 9999 SKC QNH2999INS BECMG 1309/1310 28012G20KT 9999 SKC 510003 QNH2998INS BECMG 1317/1318 33015G30KT 9999 SKC QNH2998INS BECMG 1322/1323 33010G15KT 9999 SKC QNH2997INS TX14/1221Z TN02/1313Z

Dec-12@
18:00 UTC

Dec-12 @ 18:00 UTC

Dec-12@
23:00 UTC

Dec-12 @ 23:00 UTC

TAF KCVS 121800Z 1218/1324 32012KT 9999 FEW200 QNH3005INS

Expired

Wind
  • 320° at 12 KTS
Cloud Levels
  • Few at 20,000' AGL

Dec-12@
23:00 UTC

Dec-12 @ 23:00 UTC

Dec-13@
04:00 UTC

Dec-13 @ 04:00 UTC

BECMG 1223/1224 VRB06KT 9999 SKC QNH3004INS

Becoming

Becoming Conditions expected by Fri, Dec 13, 2019 @ 00:00 UTC

Wind
  • Variable at 6 KTS
Cloud Levels
  • Clear skies

Dec-13@
04:00 UTC

Dec-13 @ 04:00 UTC

Dec-13@
09:00 UTC

Dec-13 @ 09:00 UTC

BECMG 1304/1305 27008KT 9999 SKC QNH2999INS

Becoming

Becoming Conditions expected by Fri, Dec 13, 2019 @ 05:00 UTC

Wind
  • 270° at 8 KTS
Cloud Levels
  • Clear skies

Dec-13@
09:00 UTC

Dec-13 @ 09:00 UTC

Dec-13@
17:00 UTC

Dec-13 @ 17:00 UTC

BECMG 1309/1310 28012G20KT 9999 SKC 510003 QNH2998INS

Becoming

Becoming Conditions expected by Fri, Dec 13, 2019 @ 10:00 UTC

Wind
  • 280° at 12 KTS
  • {Gusting to 20 KTS
Cloud Levels
  • Clear skies
Turbulence
< Light turbulence expected at the surface extending to 3,000' AGL

Dec-13@
17:00 UTC

Dec-13 @ 17:00 UTC

Dec-13@
22:00 UTC

Dec-13 @ 22:00 UTC

BECMG 1317/1318 33015G30KT 9999 SKC QNH2998INS

Becoming

Becoming Conditions expected by Fri, Dec 13, 2019 @ 18:00 UTC

Wind
  • 330° at 15 KTS
  • {Gusting to 30 KTS
Cloud Levels
  • Clear skies

Dec-13@
22:00 UTC

Dec-13 @ 22:00 UTC

Dec-14@
00:00 UTC

Dec-14 @ 00:00 UTC

BECMG 1322/1323 33010G15KT 9999 SKC QNH2997INS TX14/1221Z TN02/1313Z

Becoming

Becoming Conditions expected by Fri, Dec 13, 2019 @ 23:00 UTC

Wind
  • 330° at 10 KTS
  • {Gusting to 15 KTS
Cloud Levels
  • Clear skies